world map with KCPK marked

KCPK - Airport

This information may not be accurate or current and is not valid for navigation or flight planning. No warranty of fitness for any purpose is made or implied.

flag of Virginiaflag of United States

Donate via PayPal

Additional information is available on the NEW Great Circle Mapper

Location
City:  Norfolk, Virginia, United States
Name:Chesapeake Regional
ICAO:KCPK
FAA:CPK

Details
Type:Airport (Airfield)
Use:Public/Civil
Latitude:36°39'56"N (36.665611)
Longitude:76°19'14"W (-76.320666)
Datum:WGS 1984
Elevation:19 ft (6 m)
Runways:1
Longest:5500 × 100 ft (1676 × 30.5 m)

Time
Timezone:UTC+29:08 (DST+30:08)
Local Time:

Weather
METAR:KCPK  230235Z AUTO 31007KT 7SM RA OVC026 14/11 A2992 RMK AO2

Related Locations
Nearby:
Farthest:MGV: 11771 mi / 18943 km
Margaret River, WA, AU

Find:

   beyond  
but within

Other Information
Maps:
Links:
Sources:

  

Sectional Chart

Flight Planning
at skyvector.com

 


Great Circle Mapper   Great Circle Mapper
Great Circle Mapper FAQ   Great Circle Mapper FAQ
  Karl's Home Page
KLSē   KLSē Home
   GC on Facebook
Airlines of the World   Airlines of the World
Donate via PayPal


Copyright © 2004-2014, Karl L. Swartz. All rights reserved.
All trademarks mentioned herein belong to their respective owners.

Please see credits for attribution and copyright information.

Karl Swartz <karl@kls2.com>
  Powered by FreeBSD
Valid HTML 4.01!
Labeled with ICRA
hCard Microformat
Geo Microformat